Time;durP1;ratioP1;P1;durP2;ratioP2;P2;SDS_P1;SDS_P2;PMS_P1;PMS_P2;Temp;Humidity;BMP_temperature;BMP_pressure;BME280_temperature;BME280_humidity;BME280_pressure;Samples;Min_cycle;Max_cycle;Signal;HPM_P1;HPM_P2
2023/04/17 00:02:12;;;;;;;22.00;14.43;;;10.60;88.10;;;;;;5052590;28;20036;-64
2023/04/17 00:04:39;;;;;;;19.52;13.45;;;10.60;87.90;;;;;;5054905;28;20442;-65
2023/04/17 00:07:05;;;;;;;22.10;15.23;;;10.70;87.90;;;;;;5052589;28;20103;-64
2023/04/17 00:09:31;;;;;;;21.67;15.20;;;10.70;87.70;;;;;;5031016;28;20021;-65
2023/04/17 00:11:57;;;;;;;18.75;12.52;;;10.70;87.70;;;;;;5049219;28;20060;-65
2023/04/17 00:14:23;;;;;;;22.25;15.40;;;10.70;87.60;;;;;;5057659;28;20064;-65
2023/04/17 00:16:49;;;;;;;21.67;15.32;;;10.70;87.60;;;;;;5051702;28;20170;-65
2023/04/17 00:19:15;;;;;;;23.00;15.52;;;10.60;87.60;;;;;;5049955;28;20025;-65
2023/04/17 00:21:40;;;;;;;22.65;14.60;;;10.60;87.70;;;;;;5064528;28;20055;-64
2023/04/17 00:24:06;;;;;;;23.77;16.67;;;10.60;87.80;;;;;;5064573;28;20021;-66
2023/04/17 00:26:33;;;;;;;25.45;16.50;;;10.50;87.80;;;;;;5057565;28;20057;-65
2023/04/17 00:29:01;;;;;;;23.02;15.27;;;10.50;87.80;;;;;;5058879;28;20021;-65
2023/04/17 00:31:27;;;;;;;19.52;14.25;;;10.50;87.90;;;;;;5065852;28;20025;-65
2023/04/17 00:33:52;;;;;;;24.02;16.77;;;10.50;88.00;;;;;;5052179;28;20017;-65
2023/04/17 00:36:18;;;;;;;23.70;14.73;;;10.50;88.00;;;;;;5050790;28;20021;-64
2023/04/17 00:38:43;;;;;;;24.27;16.00;;;10.50;88.00;;;;;;5056968;28;20029;-64
2023/04/17 00:41:10;;;;;;;22.83;16.08;;;10.40;88.00;;;;;;5055033;28;20467;-65
2023/04/17 00:43:35;;;;;;;23.70;16.45;;;10.40;88.10;;;;;;5052822;28;20395;-65
2023/04/17 00:46:02;;;;;;;23.30;15.38;;;10.40;88.20;;;;;;5062295;28;20025;-64
2023/04/17 00:48:28;;;;;;;25.52;16.42;;;10.30;88.40;;;;;;5052039;28;20021;-64
2023/04/17 00:50:54;;;;;;;23.40;16.50;;;10.30;88.20;;;;;;5056370;28;20048;-65
2023/04/17 00:53:19;;;;;;;25.05;16.10;;;10.40;88.30;;;;;;5052373;28;20070;-66
2023/04/17 00:55:47;;;;;;;26.88;16.83;;;10.30;88.20;;;;;;5051960;28;20028;-64
2023/04/17 00:58:12;;;;;;;24.67;16.60;;;10.30;88.40;;;;;;5051315;28;20110;-64
2023/04/17 01:00:38;;;;;;;21.67;15.10;;;10.30;88.50;;;;;;5056768;28;20060;-64
2023/04/17 01:03:04;;;;;;;25.13;16.70;;;10.30;88.50;;;;;;5051817;28;20029;-65
2023/04/17 01:05:30;;;;;;;22.73;15.43;;;10.30;89.00;;;;;;5051862;28;20729;-64
2023/04/17 01:07:56;;;;;;;19.80;14.05;;;10.40;88.40;;;;;;5055574;28;20029;-64
2023/04/17 01:10:22;;;;;;;22.77;16.25;;;10.30;88.30;;;;;;5058090;28;20029;-68
2023/04/17 01:13:02;;;;;;;27.00;17.70;;;10.30;88.30;;;;;;5051715;28;20028;-64
2023/04/17 01:15:27;;;;;;;24.63;15.52;;;10.30;88.50;;;;;;5057488;28;20091;-64
2023/04/17 01:17:53;;;;;;;24.70;16.20;;;10.30;88.50;;;;;;5051986;28;20487;-64
2023/04/17 01:20:19;;;;;;;25.38;16.75;;;10.30;88.50;;;;;;5058788;28;20028;-65
2023/04/17 01:22:48;;;;;;;23.73;16.50;;;10.30;88.50;;;;;;5066573;28;20033;-66
2023/04/17 01:25:13;;;;;;;24.30;16.27;;;10.30;88.50;;;;;;5054884;28;20091;-64
2023/04/17 01:27:39;;;;;;;21.85;15.75;;;10.40;88.40;;;;;;5051502;28;20491;-65
2023/04/17 01:30:05;;;;;;;26.23;17.15;;;10.40;88.40;;;;;;5052643;28;20033;-65
2023/04/17 01:32:31;;;;;;;24.17;16.27;;;10.40;88.40;;;;;;5055891;28;20025;-64
2023/04/17 01:34:56;;;;;;;22.98;15.02;;;10.40;88.40;;;;;;5050424;28;20025;-64
2023/04/17 01:37:22;;;;;;;23.42;15.68;;;10.40;88.30;;;;;;5055388;28;20021;-64
2023/04/17 01:39:47;;;;;;;26.83;18.48;;;10.40;88.20;;;;;;5057116;28;20032;-64
2023/04/17 01:42:13;;;;;;;23.70;17.25;;;10.40;88.20;;;;;;5054964;28;20017;-65
2023/04/17 01:44:38;;;;;;;25.08;16.63;;;10.40;88.30;;;;;;5051178;28;20029;-64
2023/04/17 01:47:04;;;;;;;23.90;17.00;;;10.40;88.40;;;;;;5050562;28;20024;-64
2023/04/17 01:49:30;;;;;;;21.60;15.38;;;10.40;88.40;;;;;;5051458;28;20025;-63
2023/04/17 01:51:55;;;;;;;24.95;16.23;;;10.40;88.40;;;;;;5054431;28;20029;-65
2023/04/17 01:54:21;;;;;;;22.58;15.30;;;10.40;88.30;;;;;;5050390;28;20033;-64
2023/04/17 01:56:46;;;;;;;24.13;15.93;;;10.50;88.20;;;;;;5053135;28;20029;-63
2023/04/17 01:59:12;;;;;;;25.67;16.23;;;10.50;88.10;;;;;;5050221;28;20490;-64
2023/04/17 02:01:37;;;;;;;24.60;16.92;;;10.50;88.10;;;;;;5047751;28;20078;-65
2023/04/17 02:04:03;;;;;;;27.13;17.25;;;10.50;87.90;;;;;;5050445;28;20044;-64
2023/04/17 02:06:30;;;;;;;28.33;18.17;;;10.50;88.00;;;;;;5050650;28;20107;-65
2023/04/17 02:08:56;;;;;;;24.60;16.83;;;10.50;88.10;;;;;;5049067;28;20021;-64
2023/04/17 02:11:21;;;;;;;26.40;17.67;;;10.40;88.10;;;;;;5050643;28;20037;-64
2023/04/17 02:13:47;;;;;;;27.25;18.23;;;10.40;88.20;;;;;;5051185;28;20017;-64
2023/04/17 02:16:12;;;;;;;26.98;18.13;;;10.40;88.20;;;;;;5049847;28;20021;-65
2023/04/17 02:18:39;;;;;;;29.23;18.23;;;10.40;88.20;;;;;;5050530;28;20502;-65
2023/04/17 02:21:05;;;;;;;29.30;19.33;;;10.40;88.30;;;;;;5051140;28;20403;-64
2023/04/17 02:23:31;;;;;;;25.98;17.00;;;10.40;88.30;;;;;;5052965;28;20059;-64
2023/04/17 02:25:56;;;;;;;26.63;18.05;;;10.40;88.50;;;;;;5049533;28;20103;-64
2023/04/17 02:28:22;;;;;;;26.08;16.85;;;10.40;88.50;;;;;;5058956;28;20609;-64
2023/04/17 02:30:47;;;;;;;27.60;18.95;;;10.30;88.50;;;;;;5050154;28;20029;-63
2023/04/17 02:33:13;;;;;;;27.00;19.27;;;10.30;88.60;;;;;;5050443;28;20063;-63
2023/04/17 02:35:39;;;;;;;27.23;17.95;;;10.30;88.70;;;;;;5049967;28;20035;-65
2023/04/17 02:38:04;;;;;;;26.70;18.77;;;10.20;89.40;;;;;;5047849;28;20032;-65
2023/04/17 02:40:30;;;;;;;25.23;17.67;;;10.20;88.90;;;;;;5047254;28;20033;-65
2023/04/17 02:42:55;;;;;;;23.52;15.82;;;10.20;89.00;;;;;;5044219;28;20021;-63
2023/04/17 02:45:21;;;;;;;25.42;17.52;;;10.20;88.90;;;;;;5050290;28;20056;-65
2023/04/17 02:47:47;;;;;;;23.55;15.82;;;10.20;89.00;;;;;;5060995;28;20541;-66
2023/04/17 02:50:12;;;;;;;22.25;15.07;;;10.20;89.10;;;;;;5055825;28;20114;-64
2023/04/17 02:52:39;;;;;;;20.70;14.65;;;10.20;89.10;;;;;;5054232;28;20087;-63
2023/04/17 02:55:05;;;;;;;28.73;20.17;;;10.20;89.10;;;;;;5049926;28;20041;-64
2023/04/17 02:57:31;;;;;;;25.75;17.38;;;10.10;89.10;;;;;;5058396;28;20012;-66
2023/04/17 02:59:56;;;;;;;27.27;20.50;;;10.00;89.40;;;;;;5061334;28;20116;-64
2023/04/17 03:02:23;;;;;;;23.08;17.67;;;9.90;90.10;;;;;;5032057;28;20505;-65
2023/04/17 03:04:49;;;;;;;22.63;16.50;;;9.90;90.00;;;;;;5049804;28;20021;-66
2023/04/17 03:07:17;;;;;;;25.17;16.75;;;9.80;90.10;;;;;;5050512;28;20074;-64
2023/04/17 03:09:47;;;;;;;23.33;15.18;;;9.80;90.20;;;;;;5051141;28;20111;-65
2023/04/17 03:12:16;;;;;;;23.88;17.13;;;9.80;90.20;;;;;;5050796;28;20025;-66
2023/04/17 03:14:42;;;;;;;24.02;16.33;;;9.80;90.20;;;;;;5054315;28;20650;-66
2023/04/17 03:17:09;;;;;;;21.58;16.25;;;9.90;90.20;;;;;;5050277;28;20029;-65
2023/04/17 03:19:34;;;;;;;21.65;15.25;;;9.80;90.10;;;;;;5050103;28;20503;-66
2023/04/17 03:22:01;;;;;;;22.25;15.90;;;9.90;90.10;;;;;;5050377;28;20056;-68
2023/04/17 03:24:27;;;;;;;20.38;14.55;;;9.80;90.10;;;;;;5058160;28;20379;-65
2023/04/17 03:26:52;;;;;;;19.95;13.40;;;9.90;90.10;;;;;;5046699;28;20039;-66
2023/04/17 03:29:18;;;;;;;22.40;15.38;;;9.90;90.40;;;;;;5059647;28;20118;-64
2023/04/17 03:31:43;;;;;;;19.25;13.35;;;9.90;90.10;;;;;;5048415;28;20120;-65
2023/04/17 03:34:09;;;;;;;20.85;14.80;;;9.90;90.10;;;;;;5048949;28;20053;-65
2023/04/17 03:36:35;;;;;;;22.35;15.07;;;10.00;90.10;;;;;;5049303;28;20025;-66
2023/04/17 03:39:00;;;;;;;22.42;15.45;;;9.90;90.00;;;;;;5049587;28;20025;-65
2023/04/17 03:41:26;;;;;;;23.23;15.80;;;9.90;90.00;;;;;;5044275;28;20369;-65
2023/04/17 03:43:52;;;;;;;20.73;15.27;;;9.90;90.10;;;;;;5051757;28;20032;-64
2023/04/17 03:46:17;;;;;;;22.98;16.02;;;9.90;90.00;;;;;;5049508;28;20094;-65
2023/04/17 03:48:43;;;;;;;23.45;16.60;;;9.90;90.00;;;;;;5049364;28;20050;-64
2023/04/17 03:51:08;;;;;;;23.85;16.20;;;9.90;90.00;;;;;;5048334;28;20048;-63
2023/04/17 03:53:34;;;;;;;22.27;15.55;;;9.90;90.00;;;;;;5034943;28;20084;-64
2023/04/17 03:56:00;;;;;;;24.27;16.63;;;9.90;90.10;;;;;;5049134;28;20079;-67
2023/04/17 03:58:25;;;;;;;24.90;16.15;;;9.90;90.00;;;;;;5049951;28;20415;-66
2023/04/17 04:00:54;;;;;;;25.45;17.45;;;9.90;90.10;;;;;;5048419;28;20525;-65
2023/04/17 04:03:20;;;;;;;23.55;17.30;;;9.80;90.10;;;;;;5049684;28;20106;-67
2023/04/17 04:05:46;;;;;;;23.15;16.10;;;9.80;90.20;;;;;;5060864;28;20032;-67
2023/04/17 04:08:11;;;;;;;22.50;15.45;;;9.70;90.20;;;;;;5047740;28;20040;-66
2023/04/17 04:10:37;;;;;;;24.35;16.95;;;9.70;90.30;;;;;;5049354;28;20099;-65
2023/04/17 04:13:03;;;;;;;25.40;17.58;;;9.70;90.30;;;;;;5050610;28;20025;-66
2023/04/17 04:15:28;;;;;;;20.55;14.43;;;9.70;90.40;;;;;;5048900;28;20029;-65
2023/04/17 04:17:54;;;;;;;27.25;19.70;;;9.70;90.40;;;;;;5048950;28;20505;-66
2023/04/17 04:20:21;;;;;;;22.42;15.63;;;9.70;90.50;;;;;;5049936;28;20442;-66
2023/04/17 04:22:47;;;;;;;22.23;15.38;;;9.60;90.50;;;;;;5042904;28;20025;-65
2023/04/17 04:25:14;;;;;;;23.38;15.52;;;9.70;90.60;;;;;;5055065;28;20087;-66
2023/04/17 04:27:44;;;;;;;26.55;18.05;;;9.70;90.50;;;;;;5056299;28;20099;-65
2023/04/17 04:30:10;;;;;;;25.60;17.55;;;9.70;90.60;;;;;;5050865;28;20021;-66
2023/04/17 04:32:36;;;;;;;24.80;17.08;;;9.70;90.60;;;;;;5052595;28;20024;-66
2023/04/17 04:35:02;;;;;;;25.58;17.25;;;9.70;90.60;;;;;;5052430;28;20025;-67
2023/04/17 04:37:31;;;;;;;23.23;16.00;;;9.70;90.70;;;;;;5052845;28;20063;-67
2023/04/17 04:40:00;;;;;;;21.95;14.38;;;9.70;90.70;;;;;;5052373;28;20054;-66
2023/04/17 04:42:27;;;;;;;22.33;15.10;;;9.70;90.70;;;;;;5034043;28;20108;-67
2023/04/17 04:44:53;;;;;;;25.98;17.73;;;9.80;90.60;;;;;;5054321;28;20654;-66
2023/04/17 04:47:18;;;;;;;27.48;19.25;;;9.70;90.50;;;;;;5052589;28;20127;-67
2023/04/17 04:49:44;;;;;;;26.02;17.08;;;9.70;90.60;;;;;;5052172;28;20076;-67
2023/04/17 04:52:10;;;;;;;23.13;14.82;;;9.60;90.70;;;;;;5051131;28;20033;-66
2023/04/17 04:54:36;;;;;;;28.30;18.60;;;9.70;90.80;;;;;;5052349;28;20020;-66
2023/04/17 04:57:01;;;;;;;26.38;16.85;;;9.70;90.80;;;;;;5033882;28;20028;-66
2023/04/17 04:59:27;;;;;;;31.60;19.42;;;9.70;90.80;;;;;;5053616;28;20407;-66
2023/04/17 05:01:52;;;;;;;25.67;17.13;;;9.70;90.90;;;;;;5051370;28;20071;-65
2023/04/17 05:04:18;;;;;;;31.42;20.50;;;9.60;91.00;;;;;;5057027;28;20046;-65
2023/04/17 05:06:44;;;;;;;27.45;18.27;;;9.60;91.00;;;;;;5062426;28;20087;-66
2023/04/17 05:09:10;;;;;;;29.90;19.02;;;9.60;91.10;;;;;;5056733;28;20459;-66
2023/04/17 05:11:35;;;;;;;24.15;15.40;;;9.50;91.20;;;;;;5052176;28;20032;-66
2023/04/17 05:14:01;;;;;;;27.13;17.42;;;9.60;91.20;;;;;;5051834;28;20035;-66
2023/04/17 05:16:26;;;;;;;25.42;17.33;;;9.60;91.10;;;;;;5051569;28;20492;-66
2023/04/17 05:18:52;;;;;;;26.73;16.75;;;9.70;91.10;;;;;;5048006;28;20048;-65
2023/04/17 05:21:17;;;;;;;30.88;19.38;;;9.70;91.10;;;;;;5061681;28;20024;-65
2023/04/17 05:23:43;;;;;;;28.90;18.50;;;9.70;91.00;;;;;;5071998;28;20038;-65
2023/04/17 05:26:09;;;;;;;29.98;19.30;;;9.70;91.10;;;;;;5049989;28;20094;-63
2023/04/17 05:28:34;;;;;;;28.80;19.13;;;9.70;91.10;;;;;;5050645;28;20052;-65
2023/04/17 05:31:00;;;;;;;24.58;15.55;;;9.80;91.10;;;;;;5051976;28;20467;-65
2023/04/17 05:33:26;;;;;;;32.15;20.58;;;9.80;91.30;;;;;;5034243;28;20090;-65
2023/04/17 05:35:52;;;;;;;28.92;19.55;;;9.80;91.10;;;;;;5056259;28;20096;-64
2023/04/17 05:38:17;;;;;;;28.75;18.58;;;9.70;91.10;;;;;;5052102;28;20108;-66
2023/04/17 05:40:43;;;;;;;25.92;16.60;;;9.80;91.20;;;;;;5065925;28;20062;-66
2023/04/17 05:43:10;;;;;;;28.60;18.95;;;9.80;91.20;;;;;;5065752;28;20036;-65
2023/04/17 05:45:35;;;;;;;25.80;17.50;;;9.90;91.10;;;;;;5054579;28;20025;-66
2023/04/17 05:48:01;;;;;;;26.45;17.58;;;9.90;91.00;;;;;;5047275;28;20163;-66
2023/04/17 05:50:27;;;;;;;29.15;19.50;;;9.90;91.00;;;;;;5050979;28;20029;-64
2023/04/17 05:52:52;;;;;;;26.58;18.48;;;9.80;91.00;;;;;;5048062;28;20021;-65
2023/04/17 05:55:21;;;;;;;24.98;16.95;;;9.80;91.10;;;;;;5052998;28;20475;-65
2023/04/17 05:57:46;;;;;;;28.27;19.23;;;9.90;91.20;;;;;;5053046;28;20503;-65
2023/04/17 06:00:13;;;;;;;30.17;20.05;;;9.90;91.20;;;;;;5054080;28;20022;-65
2023/04/17 06:02:43;;;;;;;28.85;19.48;;;9.90;91.20;;;;;;5030794;28;20020;-65
2023/04/17 06:05:09;;;;;;;27.30;18.27;;;9.80;91.20;;;;;;5049771;28;20051;-65
2023/04/17 06:07:38;;;;;;;27.95;19.08;;;9.90;91.20;;;;;;5050065;28;20479;-64
2023/04/17 06:10:07;;;;;;;25.63;17.80;;;9.80;91.30;;;;;;5052362;28;20033;-66
2023/04/17 06:12:33;;;;;;;26.55;17.98;;;9.90;91.30;;;;;;5052470;28;20045;-65
2023/04/17 06:14:59;;;;;;;22.13;14.73;;;9.90;91.30;;;;;;5050452;28;20086;-64
2023/04/17 06:17:25;;;;;;;23.83;17.15;;;10.00;91.20;;;;;;5049098;28;20463;-65
2023/04/17 06:19:50;;;;;;;26.08;18.08;;;10.00;91.20;;;;;;5050005;28;20021;-66
2023/04/17 06:22:16;;;;;;;31.02;21.05;;;10.00;91.20;;;;;;5049266;28;20369;-66
2023/04/17 06:24:41;;;;;;;29.80;19.27;;;10.00;91.20;;;;;;5049051;28;20512;-64
2023/04/17 06:27:07;;;;;;;27.00;18.30;;;9.90;91.10;;;;;;5050062;28;20033;-65
2023/04/17 06:29:33;;;;;;;28.38;18.88;;;9.90;91.20;;;;;;5049583;28;20032;-66
2023/04/17 06:31:58;;;;;;;26.33;16.95;;;9.90;91.20;;;;;;5049795;28;20048;-65
2023/04/17 06:34:24;;;;;;;27.00;18.95;;;9.90;91.20;;;;;;5048504;28;20028;-65
2023/04/17 06:36:50;;;;;;;31.08;19.42;;;9.90;91.30;;;;;;5049627;28;20136;-66
2023/04/17 06:39:16;;;;;;;35.70;23.25;;;10.00;91.30;;;;;;5049661;28;20559;-65
2023/04/17 06:41:42;;;;;;;29.13;19.08;;;9.90;91.20;;;;;;5033679;28;20032;-66
2023/04/17 06:44:08;;;;;;;25.70;17.25;;;9.90;91.30;;;;;;5049041;28;20029;-66
2023/04/17 06:46:33;;;;;;;32.97;21.75;;;10.00;91.30;;;;;;5048676;28;20048;-67
2023/04/17 06:49:00;;;;;;;30.55;21.10;;;10.00;91.20;;;;;;5049920;28;20522;-66
2023/04/17 06:51:27;;;;;;;28.25;19.55;;;10.00;91.20;;;;;;5046801;28;20067;-66
2023/04/17 06:53:53;;;;;;;27.80;18.60;;;10.00;91.10;;;;;;5049257;28;20017;-66
2023/04/17 06:56:19;;;;;;;29.33;20.13;;;10.10;91.10;;;;;;5049731;28;20519;-65
2023/04/17 06:58:44;;;;;;;30.73;20.30;;;10.10;91.00;;;;;;5050035;28;20517;-65
2023/04/17 07:01:11;;;;;;;35.20;20.90;;;10.10;91.00;;;;;;5046634;28;20488;-65
2023/04/17 07:03:40;;;;;;;36.78;24.25;;;10.20;91.00;;;;;;5049087;28;20028;-66
2023/04/17 07:06:06;;;;;;;30.73;20.00;;;10.10;90.90;;;;;;5050511;28;20036;-65
2023/04/17 07:08:32;;;;;;;29.33;19.70;;;10.10;91.00;;;;;;5048696;28;20025;-67
2023/04/17 07:10:57;;;;;;;35.83;23.38;;;10.20;90.90;;;;;;5050199;28;20104;-66
2023/04/17 07:13:23;;;;;;;35.40;22.35;;;10.20;90.80;;;;;;5049187;28;20178;-65
2023/04/17 07:15:55;;;;;;;35.75;23.23;;;10.20;90.80;;;;;;5051914;28;20427;-65
2023/04/17 07:18:21;;;;;;;39.20;24.70;;;10.20;90.70;;;;;;5045920;28;20063;-65
2023/04/17 07:20:47;;;;;;;35.58;23.73;;;10.20;90.70;;;;;;5050075;28;20060;-66
2023/04/17 07:23:13;;;;;;;34.83;23.10;;;10.20;90.70;;;;;;5046939;28;20034;-64
2023/04/17 07:25:38;;;;;;;34.28;21.88;;;10.30;90.70;;;;;;5051674;28;20048;-65
2023/04/17 07:28:04;;;;;;;39.08;25.83;;;10.30;90.70;;;;;;5051172;28;20029;-66
2023/04/17 07:30:30;;;;;;;34.53;22.60;;;10.30;90.50;;;;;;5049892;28;20021;-66
2023/04/17 07:32:55;;;;;;;35.53;22.20;;;10.40;90.40;;;;;;5065075;28;20083;-66
2023/04/17 07:35:22;;;;;;;38.03;26.15;;;10.50;90.40;;;;;;5053486;28;20527;-65
2023/04/17 07:37:48;;;;;;;38.38;25.55;;;10.50;90.20;;;;;;5053462;28;20438;-66
2023/04/17 07:40:15;;;;;;;39.95;25.98;;;10.50;90.20;;;;;;5030547;28;20013;-66
2023/04/17 07:42:41;;;;;;;39.58;25.63;;;10.40;90.10;;;;;;5052965;28;20497;-65
2023/04/17 07:45:07;;;;;;;32.03;20.73;;;10.40;90.10;;;;;;5049841;28;20033;-67
2023/04/17 07:47:33;;;;;;;35.63;23.80;;;10.40;90.20;;;;;;5051085;28;20024;-65
2023/04/17 07:49:58;;;;;;;36.85;24.55;;;10.50;90.10;;;;;;5053342;28;20534;-65
2023/04/17 07:52:24;;;;;;;32.40;21.98;;;10.50;90.00;;;;;;5051550;28;20650;-65
2023/04/17 07:54:50;;;;;;;36.22;23.83;;;10.50;89.80;;;;;;5049236;28;20430;-65
2023/04/17 07:57:16;;;;;;;36.95;24.38;;;10.60;89.70;;;;;;5052638;28;20137;-65
2023/04/17 07:59:42;;;;;;;33.38;22.17;;;10.50;89.60;;;;;;5051679;28;20108;-65
2023/04/17 08:02:08;;;;;;;31.38;21.67;;;10.50;89.70;;;;;;5048592;28;20403;-65
2023/04/17 08:04:34;;;;;;;32.13;22.92;;;10.50;89.70;;;;;;5054093;28;20035;-65
2023/04/17 08:07:00;;;;;;;30.75;21.88;;;10.50;89.60;;;;;;5049011;28;20029;-66
2023/04/17 08:09:25;;;;;;;27.73;19.15;;;10.60;89.50;;;;;;5053491;28;20028;-66
2023/04/17 08:11:51;;;;;;;30.55;20.80;;;10.70;89.40;;;;;;5063911;28;20040;-65
2023/04/17 08:14:19;;;;;;;37.72;25.60;;;10.70;89.10;;;;;;5052626;28;20021;-66
2023/04/17 08:16:48;;;;;;;32.92;21.88;;;10.80;88.90;;;;;;5051754;28;20025;-65
2023/04/17 08:19:13;;;;;;;29.85;20.60;;;10.70;89.00;;;;;;5042482;28;20449;-67
2023/04/17 08:21:40;;;;;;;30.02;21.25;;;10.70;89.00;;;;;;5055890;28;20116;-65
2023/04/17 08:24:06;;;;;;;29.85;20.58;;;10.80;89.00;;;;;;5048938;28;20155;-65
2023/04/17 08:26:31;;;;;;;37.30;26.77;;;10.80;89.10;;;;;;5030339;28;20033;-65
2023/04/17 08:29:00;;;;;;;31.23;22.02;;;10.80;88.90;;;;;;5052582;28;20025;-65
2023/04/17 08:31:27;;;;;;;34.92;23.45;;;10.90;89.10;;;;;;5054335;28;20086;-64
2023/04/17 08:33:53;;;;;;;38.63;26.02;;;11.00;88.90;;;;;;5051488;28;20009;-66
2023/04/17 08:36:19;;;;;;;33.55;23.33;;;11.00;88.50;;;;;;5053534;28;20123;-65
2023/04/17 08:38:46;;;;;;;40.13;27.48;;;11.20;88.60;;;;;;5052416;28;20028;-64
2023/04/17 08:41:20;;;;;;;31.67;21.58;;;11.20;88.30;;;;;;5059331;28;20032;-65
2023/04/17 08:43:50;;;;;;;31.95;23.58;;;11.40;88.10;;;;;;5049845;28;20039;-66
2023/04/17 08:46:17;;;;;;;34.92;25.15;;;11.60;87.70;;;;;;5059568;28;20051;-64
2023/04/17 08:48:44;;;;;;;37.13;26.33;;;11.70;87.10;;;;;;5034315;28;20033;-66
2023/04/17 08:51:10;;;;;;;37.42;25.60;;;11.70;86.50;;;;;;5050851;28;20071;-64
2023/04/17 08:53:35;;;;;;;38.53;27.17;;;11.80;86.40;;;;;;5051783;28;20025;-67
2023/04/17 08:56:05;;;;;;;40.42;27.35;;;11.80;85.90;;;;;;5051154;28;20021;-64
2023/04/17 08:58:35;;;;;;;34.13;24.48;;;11.90;85.50;;;;;;5049918;28;20108;-67
2023/04/17 09:01:11;;;;;;;33.33;23.15;;;11.90;85.30;;;;;;5030186;28;20040;-66
2023/04/17 09:03:42;;;;;;;32.00;21.67;;;12.20;85.10;;;;;;5050854;28;20029;-64
2023/04/17 09:06:12;;;;;;;29.67;22.35;;;12.40;84.60;;;;;;5049935;28;20027;-65
2023/04/17 09:08:52;;;;;;;33.95;23.95;;;12.50;83.90;;;;;;5048951;28;20035;-65
2023/04/17 09:11:18;;;;;;;34.03;22.98;;;12.70;82.90;;;;;;5049130;28;20131;-66
2023/04/17 09:13:44;;;;;;;34.95;25.45;;;12.80;82.40;;;;;;5049868;28;20559;-65
2023/04/17 09:16:12;;;;;;;29.13;22.05;;;12.60;81.20;;;;;;5050554;28;20033;-66
2023/04/17 09:18:39;;;;;;;31.95;23.40;;;12.80;81.50;;;;;;5047290;28;20025;-67
2023/04/17 09:21:07;;;;;;;35.72;24.25;;;12.80;81.20;;;;;;5046411;28;20075;-66
2023/04/17 09:23:50;;;;;;;34.63;24.95;;;12.90;80.70;;;;;;5048374;28;20056;-65
2023/04/17 09:26:20;;;;;;;37.40;24.65;;;12.90;80.10;;;;;;5048322;28;20083;-65
2023/04/17 09:29:13;;;;;;;29.17;22.27;;;12.90;79.90;;;;;;5047715;28;20040;-64
2023/04/17 09:31:43;;;;;;;;;;;12.90;79.70;;;;;;5029351;28;20025;-65
2023/04/17 09:34:11;;;;;;;31.30;21.95;;;12.90;79.40;;;;;;5049415;28;19916;-66
2023/04/17 09:36:38;;;;;;;29.52;21.10;;;12.90;79.00;;;;;;5052076;28;20472;-66
2023/04/17 09:39:24;;;;;;;26.60;19.98;;;13.00;79.00;;;;;;5046760;28;20056;-66
2023/04/17 09:42:02;;;;;;;30.00;22.45;;;13.20;78.90;;;;;;5044618;28;20039;-68
2023/04/17 09:44:31;;;;;;;32.30;24.08;;;13.10;76.50;;;;;;5048516;28;20028;-66
2023/04/17 09:46:59;;;;;;;28.30;21.60;;;13.00;76.90;;;;;;5048101;28;20025;-66
2023/04/17 09:49:47;;;;;;;28.05;20.67;;;13.10;76.90;;;;;;5044161;28;20032;-66
2023/04/17 09:52:13;;;;;;;29.45;21.80;;;13.20;76.90;;;;;;5047666;28;20498;-66
2023/04/17 09:54:39;;;;;;;31.00;23.63;;;13.30;76.00;;;;;;5046057;28;20037;-66
2023/04/17 09:57:07;;;;;;;28.58;21.77;;;13.10;74.30;;;;;;5043277;28;20503;-66
2023/04/17 09:59:37;;;;;;;24.38;18.90;;;13.10;75.20;;;;;;5025815;28;20399;-67
2023/04/17 10:02:05;;;;;;;22.52;17.80;;;13.30;75.40;;;;;;5026294;28;20025;-67
2023/04/17 10:04:32;;;;;;;26.85;19.23;;;13.50;75.10;;;;;;5045011;28;20033;-66
2023/04/17 10:06:58;;;;;;;24.17;18.38;;;13.50;73.10;;;;;;5045372;28;20029;-66
2023/04/17 10:09:23;;;;;;;26.88;17.92;;;13.40;72.60;;;;;;5047200;28;20040;-67
2023/04/17 10:11:50;;;;;;;24.25;18.20;;;13.50;72.50;;;;;;5046357;28;20040;-67
2023/04/17 10:14:20;;;;;;;29.33;20.35;;;13.60;72.10;;;;;;5047294;28;20024;-67
2023/04/17 10:16:47;;;;;;;24.50;18.17;;;13.60;70.90;;;;;;5038363;28;20033;-65
2023/04/17 10:19:32;;;;;;;25.80;18.33;;;13.60;71.80;;;;;;5045391;28;20020;-65
2023/04/17 10:22:19;;;;;;;21.00;16.45;;;13.80;71.80;;;;;;5029565;28;20029;-65
2023/04/17 10:25:13;;;;;;;22.92;16.98;;;14.00;71.40;;;;;;5045261;28;20067;-65
2023/04/17 10:27:39;;;;;;;22.08;17.10;;;14.20;71.20;;;;;;5039702;28;20491;-65
2023/04/17 10:30:09;;;;;;;19.75;15.68;;;14.30;70.70;;;;;;5039597;28;20056;-67
2023/04/17 10:32:35;;;;;;;23.17;17.63;;;14.40;70.20;;;;;;5044238;28;20028;-65
2023/04/17 10:35:16;;;;;;;21.58;16.25;;;14.40;68.50;;;;;;5046386;28;20018;-65
2023/04/17 10:37:50;;;;;;;23.55;16.80;;;14.50;67.10;;;;;;5052240;28;20033;-65
2023/04/17 10:40:21;;;;;;;19.13;14.70;;;14.40;66.30;;;;;;5048129;28;20029;-66
2023/04/17 10:43:22;;;;;;;19.80;15.50;;;14.60;66.90;;;;;;5048236;28;20025;-66
2023/04/17 10:46:05;;;;;;;21.65;15.90;;;14.70;66.80;;;;;;5046868;28;20060;-64
2023/04/17 10:48:51;;;;;;;22.08;17.38;;;14.60;65.80;;;;;;5044243;28;20032;-64
2023/04/17 10:51:22;;;;;;;20.02;15.05;;;14.70;65.90;;;;;;5044480;28;20116;-65
2023/04/17 10:53:48;;;;;;;18.35;14.32;;;14.90;65.90;;;;;;5047099;28;20019;-66
2023/04/17 10:56:47;;;;;;;18.50;13.88;;;15.00;65.70;;;;;;5045744;28;20100;-68
2023/04/17 10:59:18;;;;;;;17.45;13.73;;;15.10;64.60;;;;;;5041600;28;20120;-67
2023/04/17 11:01:49;;;;;;;19.00;13.63;;;15.20;64.80;;;;;;5048471;28;20056;-65
2023/04/17 11:04:32;;;;;;;19.40;13.90;;;15.30;64.70;;;;;;5045429;28;20041;-66
2023/04/17 11:06:58;;;;;;;20.08;15.38;;;15.40;64.30;;;;;;5030297;28;20119;-67
2023/04/17 11:09:26;;;;;;;22.75;15.52;;;15.40;63.10;;;;;;5046897;28;20037;-67
2023/04/17 11:11:53;;;;;;;18.45;14.27;;;15.60;63.20;;;;;;5045395;28;20036;-65
2023/04/17 11:14:21;;;;;;;20.13;14.65;;;15.70;62.80;;;;;;5051362;28;20029;-66
2023/04/17 11:16:49;;;;;;;18.13;13.55;;;15.80;62.60;;;;;;5043795;28;20024;-66
2023/04/17 11:19:22;;;;;;;16.02;12.63;;;16.00;62.80;;;;;;5052028;28;20024;-66
2023/04/17 11:21:51;;;;;;;18.52;14.20;;;16.10;62.30;;;;;;5057788;28;20545;-64
2023/04/17 11:24:27;;;;;;;18.95;14.23;;;16.10;61.70;;;;;;5041263;28;20029;-67
2023/04/17 11:26:55;;;;;;;20.52;14.38;;;16.20;60.70;;;;;;5055569;28;20090;-66
2023/04/17 11:29:21;;;;;;;16.65;13.07;;;16.30;60.70;;;;;;5048881;28;20036;-65
2023/04/17 11:31:48;;;;;;;17.90;13.15;;;16.40;60.40;;;;;;5050327;28;20036;-65
2023/04/17 11:34:15;;;;;;;18.83;14.63;;;16.40;59.90;;;;;;5063076;28;20032;-66
2023/04/17 11:36:50;;;;;;;19.98;14.60;;;16.40;58.80;;;;;;5052656;28;20228;-65
2023/04/17 11:39:17;;;;;;;17.23;13.02;;;16.30;58.20;;;;;;5045092;28;20115;-66
2023/04/17 11:41:45;;;;;;;15.40;11.88;;;16.40;58.90;;;;;;5053416;28;20412;-65
2023/04/17 11:44:15;;;;;;;19.40;14.82;;;16.50;58.40;;;;;;5053516;28;20033;-65
2023/04/17 11:46:41;;;;;;;17.55;13.05;;;16.30;57.20;;;;;;5038008;28;20130;-66
2023/04/17 11:49:07;;;;;;;19.45;14.13;;;16.30;58.40;;;;;;5063930;28;20061;-65
2023/04/17 11:51:33;;;;;;;18.20;13.93;;;16.30;57.70;;;;;;5058115;28;20102;-66
2023/04/17 11:53:58;;;;;;;18.50;13.50;;;16.20;56.20;;;;;;5057585;28;20494;-65
2023/04/17 11:56:28;;;;;;;16.80;13.45;;;16.30;57.10;;;;;;5053291;28;20025;-66
2023/04/17 11:58:55;;;;;;;16.05;12.07;;;16.40;57.60;;;;;;5054965;28;20030;-65
2023/04/17 12:01:24;;;;;;;16.58;12.35;;;16.60;58.00;;;;;;5056287;28;20433;-65
2023/04/17 12:03:54;;;;;;;16.55;13.02;;;16.80;57.50;;;;;;5052852;28;20021;-66
2023/04/17 12:06:20;;;;;;;14.68;11.05;;;16.80;56.50;;;;;;5047551;28;20055;-66
2023/04/17 12:08:46;;;;;;;15.30;12.20;;;16.90;56.80;;;;;;5057552;28;20021;-65
2023/04/17 12:11:31;;;;;;;13.95;11.38;;;17.00;55.70;;;;;;5053822;28;20555;-65
2023/04/17 12:13:59;;;;;;;18.00;14.20;;;17.00;55.50;;;;;;5057574;28;20016;-66
2023/04/17 12:16:25;;;;;;;16.20;13.57;;;17.00;55.10;;;;;;5056050;28;20024;-65
2023/04/17 12:18:52;;;;;;;16.02;12.73;;;16.90;55.00;;;;;;5044635;28;20104;-66
2023/04/17 12:21:22;;;;;;;14.88;11.85;;;16.80;55.60;;;;;;5058609;28;20479;-65
2023/04/17 12:23:48;;;;;;;13.25;10.40;;;16.90;55.70;;;;;;5057996;28;20029;-66
2023/04/17 12:26:15;;;;;;;12.65;10.15;;;17.00;54.20;;;;;;5055205;28;20052;-65
2023/04/17 12:28:40;;;;;;;14.50;10.77;;;17.00;53.50;;;;;;5060460;28;20091;-65
2023/04/17 12:31:06;;;;;;;15.05;11.60;;;16.90;49.60;;;;;;5056544;28;20037;-66
2023/04/17 12:33:32;;;;;;;15.10;11.23;;;16.70;50.20;;;;;;5053065;28;20104;-67